createdAt,value
2019-05-12T00:00:21.338Z,100.00
2019-05-12T00:02:50.002Z,100.00
2019-05-12T00:05:18.867Z,100.00
2019-05-12T00:07:48.783Z,100.00
2019-05-12T00:10:20.612Z,100.00
2019-05-12T00:12:49.201Z,100.00
2019-05-12T00:15:19.144Z,100.00
2019-05-12T00:17:48.764Z,100.00
2019-05-12T00:20:18.255Z,100.00
2019-05-12T00:22:49.172Z,100.00
2019-05-12T00:25:18.497Z,100.00
2019-05-12T00:27:48.515Z,100.00
2019-05-12T00:30:34.077Z,100.00
2019-05-12T00:33:08.943Z,100.00
2019-05-12T00:35:38.077Z,100.00
2019-05-12T00:38:09.115Z,100.00
2019-05-12T00:40:39.305Z,100.00
2019-05-12T00:43:08.692Z,100.00
2019-05-12T00:45:38.725Z,100.00
2019-05-12T00:48:09.150Z,100.00
2019-05-12T00:50:38.568Z,100.00
2019-05-12T00:53:08.966Z,100.00
2019-05-12T00:55:38.430Z,100.00
2019-05-12T00:58:08.202Z,100.00
2019-05-12T01:00:40.537Z,100.00
2019-05-12T01:03:08.640Z,100.00
2019-05-12T01:05:38.320Z,100.00
2019-05-12T01:08:09.050Z,100.00
2019-05-12T01:10:39.047Z,100.00
2019-05-12T01:13:08.689Z,100.00
2019-05-12T01:15:37.912Z,100.00
2019-05-12T01:18:09.427Z,100.00
2019-05-12T01:20:38.890Z,100.00
2019-05-12T01:23:08.780Z,100.00
2019-05-12T01:25:39.531Z,100.00
2019-05-12T01:28:08.425Z,100.00
2019-05-12T01:30:39.113Z,100.00
2019-05-12T01:33:08.560Z,100.00
2019-05-12T01:35:38.733Z,100.00
2019-05-12T01:38:08.297Z,100.00
2019-05-12T01:40:39.365Z,100.00
2019-05-12T01:43:08.812Z,100.00
2019-05-12T01:45:38.184Z,100.00
2019-05-12T01:48:08.824Z,100.00
2019-05-12T01:50:38.555Z,100.00
2019-05-12T01:53:08.407Z,100.00
2019-05-12T01:55:38.566Z,100.00
2019-05-12T01:58:08.451Z,100.00
2019-05-12T02:00:38.858Z,100.00
2019-05-12T02:03:09.006Z,100.00
2019-05-12T02:05:39.834Z,100.00
2019-05-12T02:08:10.172Z,100.00
2019-05-12T02:10:39.098Z,100.00
2019-05-12T02:13:08.216Z,100.00
2019-05-12T02:15:38.315Z,100.00
2019-05-12T02:18:09.119Z,100.00
2019-05-12T02:20:38.138Z,100.00
2019-05-12T02:23:09.019Z,100.00
2019-05-12T02:25:38.251Z,100.00
2019-05-12T02:28:09.172Z,100.00
2019-05-12T02:30:41.732Z,100.00
2019-05-12T02:33:07.836Z,100.00
2019-05-12T02:35:36.601Z,100.00
2019-05-12T02:38:05.595Z,100.00
2019-05-12T02:40:35.090Z,100.00
2019-05-12T02:43:05.324Z,100.00
2019-05-12T02:45:35.483Z,100.00
2019-05-12T02:48:05.585Z,100.00
2019-05-12T02:50:37.535Z,100.00
2019-05-12T02:53:07.249Z,100.00
2019-05-12T02:55:36.368Z,100.00
2019-05-12T02:58:05.892Z,100.00
2019-05-12T03:00:36.696Z,100.00
2019-05-12T03:03:14.404Z,100.00
2019-05-12T03:05:44.240Z,100.00
2019-05-12T03:08:15.334Z,100.00
2019-05-12T03:10:45.999Z,100.00
2019-05-12T03:13:15.071Z,100.00
2019-05-12T03:15:44.613Z,100.00
2019-05-12T03:18:14.600Z,100.00
2019-05-12T03:20:45.464Z,100.00
2019-05-12T03:23:15.510Z,100.00
2019-05-12T03:25:45.626Z,100.00
2019-05-12T03:28:16.011Z,100.00
2019-05-12T03:30:48.372Z,100.00
2019-05-12T03:33:19.729Z,100.00
2019-05-12T03:35:52.194Z,100.00
2019-05-12T03:38:15.901Z,100.00
2019-05-12T03:40:45.328Z,100.00
2019-05-12T03:43:14.769Z,100.00
2019-05-12T03:45:45.318Z,100.00
2019-05-12T03:48:15.051Z,100.00
2019-05-12T03:50:46.085Z,100.00
2019-05-12T03:53:15.611Z,100.00
2019-05-12T03:55:46.841Z,100.00
2019-05-12T03:58:15.482Z,100.00
2019-05-12T04:00:44.856Z,100.00
2019-05-12T04:03:15.323Z,100.00
2019-05-12T04:05:45.270Z,100.00
2019-05-12T04:08:15.710Z,100.00
2019-05-12T04:10:45.585Z,100.00
2019-05-12T04:13:15.196Z,100.00
2019-05-12T04:15:45.381Z,100.00
2019-05-12T04:18:15.798Z,100.00
2019-05-12T04:20:45.355Z,100.00
2019-05-12T04:23:15.462Z,100.00
2019-05-12T04:25:52.088Z,100.00
2019-05-12T04:28:15.176Z,100.00
2019-05-12T04:30:44.700Z,100.00
2019-05-12T04:33:15.443Z,100.00
2019-05-12T04:35:45.106Z,100.00
2019-05-12T04:38:15.005Z,100.00
2019-05-12T04:40:45.010Z,100.00
2019-05-12T04:43:14.731Z,100.00
2019-05-12T04:45:45.123Z,100.00
2019-05-12T04:48:15.577Z,100.00
2019-05-12T04:50:45.249Z,100.00
2019-05-12T04:53:14.604Z,100.00
2019-05-12T04:55:44.534Z,100.00
2019-05-12T04:58:15.650Z,100.00
2019-05-12T05:00:44.854Z,100.00
2019-05-12T05:03:14.307Z,100.00
2019-05-12T05:05:44.459Z,100.00
2019-05-12T05:08:15.531Z,100.00
2019-05-12T05:10:44.430Z,100.00
2019-05-12T05:13:14.917Z,100.00
2019-05-12T05:15:44.548Z,100.00
2019-05-12T05:18:13.575Z,100.00
2019-05-12T05:20:43.796Z,100.00
2019-05-12T05:23:14.231Z,100.00
2019-05-12T05:25:43.521Z,100.00
2019-05-12T05:28:14.344Z,100.00
2019-05-12T05:30:44.080Z,100.00
2019-05-12T05:33:14.463Z,100.00
2019-05-12T05:35:43.544Z,100.00
2019-05-12T05:38:18.618Z,100.00
2019-05-12T05:40:43.563Z,100.00
2019-05-12T05:43:17.479Z,100.00
2019-05-12T05:45:43.858Z,100.00
2019-05-12T05:48:13.597Z,100.00
2019-05-12T05:50:44.836Z,100.00
2019-05-12T05:53:19.643Z,100.00
2019-05-12T05:55:50.399Z,100.00
2019-05-12T05:58:16.723Z,100.00
2019-05-12T06:00:45.302Z,100.00
2019-05-12T06:03:22.575Z,100.00
2019-05-12T06:05:44.287Z,100.00
2019-05-12T06:08:18.603Z,100.00
2019-05-12T06:10:43.742Z,100.00
2019-05-12T06:13:14.368Z,100.00
2019-05-12T06:15:43.348Z,100.00
2019-05-12T06:18:13.582Z,100.00
2019-05-12T06:20:43.717Z,100.00
2019-05-12T06:23:15.525Z,100.00
2019-05-12T06:25:51.385Z,100.00
2019-05-12T06:28:17.330Z,100.00
2019-05-12T06:30:49.846Z,100.00
2019-05-12T06:33:16.271Z,100.00
2019-05-12T06:35:45.439Z,100.00
2019-05-12T06:38:14.324Z,96.47
2019-05-12T06:40:45.402Z,100.00
2019-05-12T06:43:14.185Z,96.64
2019-05-12T06:45:45.538Z,100.00
2019-05-12T06:48:14.025Z,100.00
2019-05-12T06:50:44.173Z,100.00
2019-05-12T06:53:13.916Z,85.77
2019-05-12T06:55:43.332Z,87.51
2019-05-12T06:58:14.017Z,88.36
2019-05-12T07:00:43.753Z,83.43
2019-05-12T07:03:14.334Z,89.65
2019-05-12T07:05:45.206Z,83.94
2019-05-12T07:08:20.009Z,75.28
2019-05-12T07:10:46.930Z,71.81
2019-05-12T07:13:22.494Z,66.46
2019-05-12T07:15:44.190Z,65.76
2019-05-12T07:18:17.250Z,78.19
2019-05-12T07:20:44.720Z,77.77
2019-05-12T07:23:14.300Z,72.52
2019-05-12T07:25:44.495Z,73.10
2019-05-12T07:28:14.445Z,63.98
2019-05-12T07:30:44.198Z,66.76
2019-05-12T07:33:14.644Z,68.96
2019-05-12T07:35:44.541Z,65.59
2019-05-12T07:38:20.957Z,67.63
2019-05-12T07:40:46.972Z,57.76
2019-05-12T07:43:20.490Z,59.04
2019-05-12T07:45:56.686Z,54.21
2019-05-12T07:48:19.917Z,51.97
2019-05-12T07:50:50.236Z,45.22
2019-05-12T07:53:18.762Z,44.70
2019-05-12T07:55:49.425Z,44.00
2019-05-12T07:58:19.300Z,41.78
2019-05-12T08:00:48.176Z,42.72
2019-05-12T08:03:21.221Z,41.98
2019-05-12T08:05:51.310Z,41.91
2019-05-12T08:08:17.331Z,38.78
2019-05-12T08:10:51.382Z,40.68
2019-05-12T08:13:19.060Z,42.35
2019-05-12T08:15:51.285Z,40.02
2019-05-12T08:18:18.037Z,42.30
2019-05-12T08:20:46.582Z,41.72
2019-05-12T08:23:15.230Z,37.55
2019-05-12T08:25:43.926Z,42.09
2019-05-12T08:28:18.790Z,41.19
2019-05-12T08:30:47.550Z,41.43
2019-05-12T08:33:14.679Z,42.36
2019-05-12T08:35:44.008Z,42.66
2019-05-12T08:38:14.455Z,44.20
2019-05-12T08:40:48.816Z,43.85
2019-05-12T08:43:14.868Z,42.82
2019-05-12T08:45:44.420Z,41.09
2019-05-12T08:48:21.535Z,40.52
2019-05-12T08:50:46.041Z,41.91
2019-05-12T08:53:20.322Z,44.43
2019-05-12T08:55:44.154Z,45.23
2019-05-12T08:58:29.737Z,45.13
2019-05-12T09:00:50.066Z,44.69
2019-05-12T09:03:14.143Z,45.10
2019-05-12T09:05:44.605Z,44.19
2019-05-12T09:08:16.592Z,44.84
2019-05-12T09:10:45.299Z,44.45
2019-05-12T09:13:14.498Z,43.32
2019-05-12T09:15:43.838Z,41.97
2019-05-12T09:18:14.434Z,40.88
2019-05-12T09:20:48.720Z,40.33
2019-05-12T09:23:13.729Z,41.03
2019-05-12T09:25:45.280Z,41.35
2019-05-12T09:28:13.769Z,40.39
2019-05-12T09:30:47.635Z,41.22
2019-05-12T09:33:14.058Z,42.78
2019-05-12T09:35:43.724Z,41.69
2019-05-12T09:38:21.200Z,40.40
2019-05-12T09:40:43.720Z,41.27
2019-05-12T09:43:13.775Z,42.54
2019-05-12T09:45:51.570Z,42.71
2019-05-12T09:48:15.841Z,43.02
2019-05-12T09:50:46.522Z,44.12
2019-05-12T09:53:14.809Z,44.73
2019-05-12T09:55:46.379Z,46.19
2019-05-12T09:58:23.078Z,41.60
2019-05-12T10:00:45.412Z,43.52
2019-05-12T10:03:14.110Z,43.63
2019-05-12T10:05:44.233Z,45.58
2019-05-12T10:08:13.882Z,42.86
2019-05-12T10:10:46.798Z,43.28
2019-05-12T10:13:14.789Z,41.29
2019-05-12T10:15:43.510Z,42.20
2019-05-12T10:18:14.388Z,39.57
2019-05-12T10:20:44.145Z,38.64
2019-05-12T10:23:16.547Z,38.47
2019-05-12T10:25:44.657Z,38.90
2019-05-12T10:28:16.095Z,37.31
2019-05-12T10:30:47.046Z,37.98
2019-05-12T10:33:14.101Z,36.43
2019-05-12T10:35:43.854Z,38.02
2019-05-12T10:38:13.768Z,38.31
2019-05-12T10:40:44.513Z,36.35
2019-05-12T10:43:12.968Z,36.72
2019-05-12T10:45:44.039Z,37.44
2019-05-12T10:48:13.946Z,38.73
2019-05-12T10:50:44.114Z,36.37
2019-05-12T10:53:15.560Z,37.05
2019-05-12T10:55:44.077Z,35.15
2019-05-12T10:58:14.521Z,35.59
2019-05-12T11:00:44.344Z,34.66
2019-05-12T11:03:15.454Z,34.02
2019-05-12T11:05:44.145Z,32.90
2019-05-12T11:08:14.298Z,33.69
2019-05-12T11:10:43.100Z,32.18
2019-05-12T11:13:14.018Z,33.16
2019-05-12T11:15:46.227Z,35.15
2019-05-12T11:18:13.616Z,36.06
2019-05-12T11:20:42.250Z,37.83
2019-05-12T11:23:10.934Z,38.02
2019-05-12T11:25:39.580Z,39.44
2019-05-12T11:28:08.322Z,38.24
2019-05-12T11:30:37.071Z,40.86
2019-05-12T11:33:05.719Z,40.68
2019-05-12T11:35:34.825Z,41.26
2019-05-12T11:38:04.466Z,40.48
2019-05-12T11:40:36.141Z,37.91
2019-05-12T11:43:06.301Z,38.70
2019-05-12T11:45:34.986Z,38.49
2019-05-12T11:48:09.911Z,37.98
2019-05-12T11:50:34.572Z,35.81
2019-05-12T11:53:04.214Z,35.45
2019-05-12T11:55:34.941Z,38.65
2019-05-12T11:58:06.836Z,37.41
2019-05-12T12:00:35.874Z,36.95
2019-05-12T12:03:12.722Z,37.17
2019-05-12T12:05:38.127Z,36.71
2019-05-12T12:08:05.570Z,36.45
2019-05-12T12:10:37.583Z,37.44
2019-05-12T12:13:04.504Z,36.91
2019-05-12T12:15:34.519Z,38.12
2019-05-12T12:18:12.727Z,40.86
2019-05-12T12:20:33.981Z,41.36
2019-05-12T12:23:06.560Z,41.80
2019-05-12T12:25:34.263Z,40.61
2019-05-12T12:28:04.381Z,40.15
2019-05-12T12:30:34.120Z,40.07
2019-05-12T12:33:04.127Z,40.50
2019-05-12T12:35:34.513Z,41.61
2019-05-12T12:38:06.193Z,40.43
2019-05-12T12:40:34.832Z,41.23
2019-05-12T12:43:03.976Z,37.21
2019-05-12T12:45:40.703Z,35.27
2019-05-12T12:48:09.394Z,34.99
2019-05-12T12:50:37.878Z,34.10
2019-05-12T12:53:06.530Z,35.13
2019-05-12T12:55:37.956Z,37.76
2019-05-12T12:58:05.641Z,40.16
2019-05-12T13:00:46.838Z,37.76
2019-05-12T13:03:04.664Z,38.17
2019-05-12T13:05:34.540Z,41.00
2019-05-12T13:08:04.288Z,41.31
2019-05-12T13:10:33.713Z,44.23
2019-05-12T13:13:04.136Z,46.24
2019-05-12T13:15:34.047Z,44.61
2019-05-12T13:18:02.866Z,40.07
2019-05-12T13:20:31.457Z,39.81
2019-05-12T13:22:59.930Z,39.81
2019-05-12T13:25:28.583Z,36.83
2019-05-12T13:28:01.457Z,40.32
2019-05-12T13:30:27.519Z,41.71
2019-05-12T13:32:56.112Z,41.58
2019-05-12T13:35:24.800Z,41.75
2019-05-12T13:37:58.435Z,44.06
2019-05-12T13:40:23.605Z,46.38
2019-05-12T13:42:54.312Z,48.13
2019-05-12T13:45:24.268Z,50.98
2019-05-12T13:47:53.528Z,50.55
2019-05-12T13:50:26.272Z,49.09
2019-05-12T13:52:54.208Z,46.92
2019-05-12T13:55:25.609Z,42.30
2019-05-12T13:57:57.781Z,41.44
2019-05-12T14:00:24.553Z,39.19
2019-05-12T14:02:57.162Z,36.88
2019-05-12T14:05:24.140Z,37.67
2019-05-12T14:07:55.432Z,37.83
2019-05-12T14:10:24.581Z,36.99
2019-05-12T14:12:54.350Z,37.73
2019-05-12T14:15:24.852Z,37.49
2019-05-12T14:17:54.267Z,38.97
2019-05-12T14:20:23.931Z,39.39
2019-05-12T14:22:53.773Z,38.23
2019-05-12T14:25:29.936Z,37.99
2019-05-12T14:27:53.708Z,39.07
2019-05-12T14:30:24.490Z,42.60
2019-05-12T14:32:55.053Z,42.30
2019-05-12T14:35:26.163Z,45.25
2019-05-12T14:37:54.649Z,48.29
2019-05-12T14:40:29.873Z,52.95
2019-05-12T14:42:54.410Z,57.75
2019-05-12T14:45:29.906Z,58.48
2019-05-12T14:47:59.912Z,58.05
2019-05-12T14:50:26.839Z,54.02
2019-05-12T14:52:59.845Z,50.25
2019-05-12T14:55:28.441Z,49.55
2019-05-12T14:57:56.954Z,53.54
2019-05-12T15:00:25.595Z,58.10
2019-05-12T15:02:54.163Z,57.09
2019-05-12T15:05:28.286Z,61.99
2019-05-12T15:08:00.203Z,65.74
2019-05-12T15:10:27.232Z,76.03
2019-05-12T15:12:56.013Z,80.30
2019-05-12T15:15:24.577Z,82.74
2019-05-12T15:17:56.770Z,80.31
2019-05-12T15:20:24.058Z,80.09
2019-05-12T15:22:54.966Z,88.79
2019-05-12T15:25:23.062Z,99.57
2019-05-12T15:27:51.634Z,100.00
2019-05-12T15:30:24.439Z,100.00
2019-05-12T15:32:50.583Z,100.00
2019-05-12T15:35:19.147Z,100.00
2019-05-12T15:37:47.763Z,100.00
2019-05-12T15:40:16.400Z,100.00
2019-05-12T15:42:46.138Z,100.00
2019-05-12T15:45:16.840Z,100.00
2019-05-12T15:47:45.164Z,100.00
2019-05-12T15:50:14.941Z,100.00
2019-05-12T15:52:45.640Z,100.00
2019-05-12T15:55:17.797Z,100.00
2019-05-12T15:57:44.875Z,100.00
2019-05-12T16:00:16.760Z,100.00
2019-05-12T16:02:44.489Z,100.00
2019-05-12T16:05:14.598Z,100.00
2019-05-12T16:07:47.724Z,100.00
2019-05-12T16:10:16.612Z,100.00
2019-05-12T16:12:45.252Z,100.00
2019-05-12T16:15:19.230Z,98.51
2019-05-12T16:17:44.515Z,97.80
2019-05-12T16:20:14.408Z,100.00
2019-05-12T16:22:45.244Z,100.00
2019-05-12T16:25:15.187Z,100.00
2019-05-12T16:27:44.803Z,100.00
2019-05-12T16:30:14.063Z,100.00
2019-05-12T16:32:47.646Z,100.00
2019-05-12T16:35:14.534Z,100.00
2019-05-12T16:37:44.217Z,100.00
2019-05-12T16:40:14.087Z,100.00
2019-05-12T16:42:48.101Z,100.00
2019-05-12T16:45:19.849Z,100.00
2019-05-12T16:47:46.994Z,100.00
2019-05-12T16:50:24.040Z,100.00
2019-05-12T16:52:46.155Z,100.00
2019-05-12T16:55:14.802Z,100.00
2019-05-12T16:57:51.271Z,100.00
2019-05-12T17:00:14.845Z,100.00
2019-05-12T17:02:52.151Z,100.00
2019-05-12T17:05:19.776Z,100.00
2019-05-12T17:07:44.926Z,100.00
2019-05-12T17:10:16.548Z,100.00
2019-05-12T17:12:44.073Z,100.00
2019-05-12T17:15:14.945Z,100.00
2019-05-12T17:17:44.753Z,100.00
2019-05-12T17:20:13.979Z,100.00
2019-05-12T17:22:45.694Z,100.00
2019-05-12T17:25:15.188Z,100.00
2019-05-12T17:27:44.869Z,100.00
2019-05-12T17:30:16.824Z,100.00
2019-05-12T17:32:58.170Z,100.00
2019-05-12T17:35:20.346Z,100.00
2019-05-12T17:37:46.374Z,100.00
2019-05-12T17:40:19.886Z,100.00
2019-05-12T17:42:45.796Z,100.00
2019-05-12T17:45:20.128Z,100.00
2019-05-12T17:47:45.088Z,100.00
2019-05-12T17:50:14.080Z,100.00
2019-05-12T17:52:45.030Z,100.00
2019-05-12T17:55:15.898Z,100.00
2019-05-12T17:57:44.563Z,100.00
2019-05-12T18:00:15.108Z,100.00
2019-05-12T18:02:44.237Z,100.00
2019-05-12T18:05:15.557Z,100.00
2019-05-12T18:07:50.841Z,100.00
2019-05-12T18:10:17.883Z,100.00
2019-05-12T18:12:46.521Z,100.00
2019-05-12T18:15:16.485Z,100.00
2019-05-12T18:17:49.786Z,100.00
2019-05-12T18:20:16.301Z,100.00
2019-05-12T18:22:46.965Z,100.00
2019-05-12T18:25:21.962Z,100.00
2019-05-12T18:27:50.803Z,100.00
2019-05-12T18:30:19.360Z,100.00
2019-05-12T18:32:48.124Z,100.00
2019-05-12T18:35:16.776Z,100.00
2019-05-12T18:37:45.277Z,100.00
2019-05-12T18:40:14.983Z,100.00
2019-05-12T18:42:43.510Z,100.00
2019-05-12T18:45:17.993Z,100.00
2019-05-12T18:47:44.659Z,100.00
2019-05-12T18:50:14.091Z,100.00
2019-05-12T18:52:46.195Z,100.00
2019-05-12T18:55:13.459Z,100.00
2019-05-12T18:57:47.973Z,100.00
2019-05-12T19:00:18.712Z,100.00
2019-05-12T19:02:50.807Z,100.00
2019-05-12T19:05:21.902Z,100.00
2019-05-12T19:07:48.434Z,100.00
2019-05-12T19:10:17.092Z,100.00
2019-05-12T19:12:45.789Z,100.00
2019-05-12T19:15:19.523Z,100.00
2019-05-12T19:17:45.971Z,100.00
2019-05-12T19:20:15.120Z,100.00
2019-05-12T19:22:56.082Z,100.00
2019-05-12T19:25:19.598Z,100.00
2019-05-12T19:27:55.167Z,100.00
2019-05-12T19:30:25.306Z,99.63
2019-05-12T19:32:54.572Z,98.63
2019-05-12T19:35:23.488Z,100.00
2019-05-12T19:37:53.819Z,100.00
2019-05-12T19:40:22.745Z,100.00
2019-05-12T19:42:53.688Z,100.00
2019-05-12T19:45:22.538Z,100.00
2019-05-12T19:47:53.581Z,100.00
2019-05-12T19:50:22.414Z,100.00
2019-05-12T19:52:50.959Z,100.00
2019-05-12T19:55:20.288Z,100.00
2019-05-12T19:57:50.180Z,100.00
2019-05-12T20:00:19.078Z,100.00
2019-05-12T20:02:47.722Z,100.00
2019-05-12T20:05:17.638Z,100.00
2019-05-12T20:07:46.512Z,100.00
2019-05-12T20:10:16.548Z,100.00
2019-05-12T20:12:48.736Z,100.00
2019-05-12T20:15:15.678Z,100.00
2019-05-12T20:17:45.131Z,100.00
2019-05-12T20:20:17.714Z,100.00
2019-05-12T20:22:45.305Z,100.00
2019-05-12T20:25:14.725Z,100.00
2019-05-12T20:27:44.674Z,100.00
2019-05-12T20:30:18.896Z,100.00
2019-05-12T20:32:44.097Z,100.00
2019-05-12T20:35:14.594Z,100.00
2019-05-12T20:37:52.417Z,100.00
2019-05-12T20:40:14.197Z,100.00
2019-05-12T20:43:05.333Z,100.00
2019-05-12T20:45:13.924Z,100.00
2019-05-12T20:47:45.202Z,100.00
2019-05-12T20:50:14.671Z,100.00
2019-05-12T20:52:52.261Z,100.00
2019-05-12T20:55:16.987Z,100.00
2019-05-12T20:57:56.621Z,100.00
2019-05-12T21:00:15.957Z,100.00
2019-05-12T21:02:44.646Z,100.00
2019-05-12T21:05:17.585Z,100.00
2019-05-12T21:07:44.065Z,100.00
2019-05-12T21:10:14.890Z,100.00
2019-05-12T21:12:46.248Z,100.00
2019-05-12T21:15:20.365Z,100.00
2019-05-12T21:17:52.109Z,100.00
2019-05-12T21:20:16.778Z,100.00
2019-05-12T21:22:45.653Z,100.00
2019-05-12T21:25:14.297Z,100.00
2019-05-12T21:27:47.303Z,100.00
2019-05-12T21:30:15.183Z,100.00
2019-05-12T21:32:47.081Z,100.00
2019-05-12T21:35:21.892Z,100.00
2019-05-12T21:37:46.313Z,100.00
2019-05-12T21:40:15.253Z,100.00
2019-05-12T21:42:44.617Z,100.00
2019-05-12T21:45:14.565Z,100.00
2019-05-12T21:47:44.527Z,100.00
2019-05-12T21:50:14.103Z,100.00
2019-05-12T21:52:44.524Z,100.00
2019-05-12T21:55:21.320Z,100.00
2019-05-12T21:57:44.013Z,100.00
2019-05-12T22:00:34.717Z,100.00
2019-05-12T22:03:08.149Z,100.00
2019-05-12T22:05:47.989Z,100.00
2019-05-12T22:08:06.399Z,100.00
2019-05-12T22:10:35.571Z,100.00
2019-05-12T22:13:07.358Z,100.00
2019-05-12T22:15:36.093Z,100.00
2019-05-12T22:18:05.236Z,100.00
2019-05-12T22:20:35.788Z,100.00
2019-05-12T22:23:10.126Z,100.00
2019-05-12T22:25:35.396Z,100.00
2019-05-12T22:28:09.734Z,100.00
2019-05-12T22:30:35.145Z,100.00
2019-05-12T22:33:09.197Z,100.00
2019-05-12T22:35:34.425Z,100.00
2019-05-12T22:38:09.405Z,100.00
2019-05-12T22:40:33.357Z,100.00
2019-05-12T22:43:04.494Z,100.00
2019-05-12T22:45:37.797Z,100.00
2019-05-12T22:48:04.114Z,100.00
2019-05-12T22:50:35.183Z,100.00
2019-05-12T22:53:04.418Z,100.00
2019-05-12T22:55:35.961Z,100.00
2019-05-12T22:58:04.469Z,100.00
2019-05-12T23:00:34.332Z,100.00
2019-05-12T23:03:07.145Z,100.00
2019-05-12T23:05:33.525Z,100.00
2019-05-12T23:08:06.294Z,100.00
2019-05-12T23:10:32.644Z,100.00
2019-05-12T23:13:02.293Z,100.00
2019-05-12T23:15:33.541Z,100.00
2019-05-12T23:18:04.008Z,100.00
2019-05-12T23:20:33.354Z,100.00
2019-05-12T23:23:03.914Z,100.00
2019-05-12T23:25:33.642Z,100.00
2019-05-12T23:28:06.750Z,100.00
2019-05-12T23:30:32.936Z,100.00
2019-05-12T23:33:03.789Z,100.00
2019-05-12T23:35:34.838Z,100.00
2019-05-12T23:38:04.483Z,100.00
2019-05-12T23:40:34.538Z,100.00
2019-05-12T23:43:04.101Z,100.00
2019-05-12T23:45:33.899Z,100.00
2019-05-12T23:48:03.741Z,100.00
2019-05-12T23:50:32.899Z,100.00
2019-05-12T23:53:03.683Z,100.00
2019-05-12T23:55:35.013Z,100.00
2019-05-12T23:58:04.289Z,100.00
